Ana Sayfa
METAR-TAF:

METAR-TAF

Havaalanları :

Grove, Oklahoma, Amerika Birleşik Devletleri

Enlem: 36-36-19N, Boylam: 094-44-19W, yükseklik: 254 m

Güncel hava durumu gözlemi

Rapor saat 19:15 UTC de 24 dakika önce yapıldı.
Rüzgar kuzey/kuzeybatıdan 13 kt ve 17 kt'a kadar ani rüzgarlar
Sıcaklık 5°C
Nem 48%
Basınç 1029 hPa
Görüş mesafesi: 16.1 km
Açık gökyüzü

METAR: KGMJ 181915Z AUTO 33013G17KT 10SM CLR 05/M05 A3038 RMK AO2

Saat: 13:39 (19:39 UTC)


TAF: eksik

4.000'den fazla havaalanı için hava durumu gözlemleri ve tahminleri (METAR ve TAF raporları).

Kullanılabilir istasyonlar harita üzerinde sarı ve kırmızı noktalarla gösterilir.

İstasyonun adını görmek için fareyi noktanın üzerinde gezdirin.

Sonrasında hava gözlem ve tahminlerini görmek için tıklayın.

Haritayı değiştirmek için: yaklaştırmak için siyah artı işaretli yeşil düğmeye ve uzaklaştırmak için de eksi işaretli düğmeye hızla tıklayın; bitişik haritalar için yeşil okları kullanın.


METAR-TAF: